Map

Track Data

SID SEASON NUMBER BASIN SUBBASIN NAME ISO_TIME NATURE LAT LON WMO_WIND WMO_PRES WMO_AGENCY TRACK_TYPE DIST2LAND LANDFALL IFLAG USA_AGENCY USA_ATCF_ID USA_LAT USA_LON USA_RECORD USA_STATUS USA_WIND USA_PRES USA_SSHS USA_R34_NE USA_R34_SE USA_R34_SW USA_R34_NW USA_R50_NE USA_R50_SE USA_R50_SW USA_R50_NW USA_R64_NE USA_R64_SE USA_R64_SW USA_R64_NW USA_POCI USA_ROCI USA_RMW USA_EYE TOKYO_LAT TOKYO_LON TOKYO_GRADE TOKYO_WIND TOKYO_PRES TOKYO_R50_DIR TOKYO_R50_LONG TOKYO_R50_SHORT TOKYO_R30_DIR TOKYO_R30_LONG TOKYO_R30_SHORT TOKYO_LAND CMA_LAT CMA_LON CMA_CAT CMA_WIND CMA_PRES HKO_LAT HKO_LON HKO_CAT HKO_WIND HKO_PRES NEWDELHI_LAT NEWDELHI_LON NEWDELHI_GRADE NEWDELHI_WIND NEWDELHI_PRES NEWDELHI_CI NEWDELHI_DP NEWDELHI_POCI REUNION_LAT REUNION_LON REUNION_TYPE REUNION_WIND REUNION_PRES REUNION_TNUM REUNION_CI REUNION_RMW REUNION_R34_NE REUNION_R34_SE REUNION_R34_SW REUNION_R34_NW REUNION_R50_NE REUNION_R50_SE REUNION_R50_SW REUNION_R50_NW REUNION_R64_NE REUNION_R64_SE REUNION_R64_SW REUNION_R64_NW BOM_LAT BOM_LON BOM_TYPE BOM_WIND BOM_PRES BOM_TNUM BOM_CI BOM_RMW BOM_R34_NE BOM_R34_SE BOM_R34_SW BOM_R34_NW BOM_R50_NE BOM_R50_SE BOM_R50_SW BOM_R50_NW BOM_R64_NE BOM_R64_SE BOM_R64_SW BOM_R64_NW BOM_ROCI BOM_POCI BOM_EYE BOM_POS_METHOD BOM_PRES_METHOD NADI_LAT NADI_LON NADI_CAT NADI_WIND NADI_PRES WELLINGTON_LAT WELLINGTON_LON WELLINGTON_WIND WELLINGTON_PRES DS824_LAT DS824_LON DS824_STAGE DS824_WIND DS824_PRES TD9636_LAT TD9636_LON TD9636_STAGE TD9636_WIND TD9636_PRES TD9635_LAT TD9635_LON TD9635_WIND TD9635_PRES TD9635_ROCI NEUMANN_LAT NEUMANN_LON NEUMANN_CLASS NEUMANN_WIND NEUMANN_PRES MLC_LAT MLC_LON MLC_CLASS MLC_WIND MLC_PRES USA_GUST BOM_GUST BOM_GUST_PER REUNION_GUST REUNION_GUST_PER USA_SEAHGT USA_SEARAD_NE USA_SEARAD_SE USA_SEARAD_SW USA_SEARAD_NW STORM_SPEED STORM_DIR
1979271N13113 1979 95 WP MM SARAH 1979-09-28 00:00:00 NR 13.2000 113.100 main 391 391 __________O___ -1 13.2000 113.100 1 8 71
1979271N13113 1979 95 WP MM SARAH 1979-09-28 03:00:00 NR 13.3380 113.511 main 435 435 __________P___ -1 13.3380 113.511 1 8 71
1979271N13113 1979 95 WP MM SARAH 1979-09-28 06:00:00 NR 13.4705 113.917 main 481 481 __________P___ -1 13.4705 113.917 1 8 72
1979271N13113 1979 95 WP MM SARAH 1979-09-28 09:00:00 NR 13.5928 114.315 main 525 525 __________P___ -1 13.5928 114.315 1 8 73
1979271N13113 1979 95 WP MM SARAH 1979-09-28 12:00:00 NR 13.7000 114.700 main 570 557 __________O___ -1 13.7000 114.700 1 8 75
1979271N13113 1979 95 WP MM SARAH 1979-09-28 15:00:00 NR 13.7893 115.067 main 546 512 __________P___ -1 13.7893 115.067 1 7 77
1979271N13113 1979 95 WP MM SARAH 1979-09-28 18:00:00 NR 13.8649 115.410 main 512 482 __________P___ -1 13.8649 115.410 1 7 77
1979271N13113 1979 95 WP MM SARAH 1979-09-28 21:00:00 NR 13.9331 115.723 main 482 447 __________P___ -1 13.9331 115.723 1 6 77
1979271N13113 1979 95 WP MM SARAH 1979-09-29 00:00:00 NR 14.0000 116.000 main 447 423 __________O___ -1 14.0000 116.000 1 5 74
1979271N13113 1979 95 WP MM SARAH 1979-09-29 03:00:00 NR 14.0788 116.240 main 423 399 __________P___ -1 14.0788 116.240 1 5 70
1979271N13113 1979 95 WP MM SARAH 1979-09-29 06:00:00 NR 14.1572 116.445 main 399 379 __________P___ -1 14.1572 116.445 1 4 68
1979271N13113 1979 95 WP MM SARAH 1979-09-29 09:00:00 NR 14.2320 116.628 main 379 355 __________P___ -1 14.2320 116.628 1 4 68
1979271N13113 1979 95 WP MM SARAH 1979-09-29 12:00:00 NR 14.3000 116.800 main 355 341 __________O___ -1 14.3000 116.800 1 3 68
1979271N13113 1979 95 WP MM SARAH 1979-09-29 15:00:00 NR 14.3610 116.950 main 341 321 __________P___ -1 14.3610 116.950 1 3 68
1979271N13113 1979 95 WP MM SARAH 1979-09-29 18:00:00 NR 14.4145 117.098 main 321 297 __________P___ -1 14.4145 117.098 1 3 72
1979271N13113 1979 95 WP MM SARAH 1979-09-29 21:00:00 NR 14.4609 117.272 main 297 276 __________P___ -1 14.4609 117.272 1 4 78
1979271N13113 1979 95 WP MM SARAH 1979-09-30 00:00:00 NR 14.5000 117.500 main 276 247 __________O___ -1 14.5000 117.500 1 6 82
1979271N13113 1979 95 WP MM SARAH 1979-09-30 03:00:00 NR 14.5408 117.846 main 247 203 __________P___ -1 14.5408 117.846 1 7 84
1979271N13113 1979 95 WP MM SARAH 1979-09-30 06:00:00 NR 14.5732 118.242 main 203 162 __________P___ -1 14.5732 118.242 1 8 86
1979271N13113 1979 95 WP MM SARAH 1979-09-30 09:00:00 NR 14.5939 118.643 main 162 120 __________P___ -1 14.5939 118.643 1 7 88
1979271N13113 1979 95 WP MM SARAH 1979-09-30 12:00:00 TS 14.6000 119.000 main 120 99 O________OO___ jtwc_wp WP221979 14.6000 119.000 15 -1 14.6000 119.000 TC 15 14.6000 119.000 1 15 6 90
1979271N13113 1979 95 WP MM SARAH 1979-09-30 15:00:00 TS 14.5988 119.225 main 99 88 P________PP___ WP221979 14.6125 119.200 15 -1 14.6125 119.200 TC 15 14.5850 119.250 1 15 3 104
1979271N13113 1979 95 WP MM SARAH 1979-09-30 18:00:00 TS 14.5298 119.292 main 92 82 O_O______OP___ jtwc_wp WP221979 14.6000 119.400 15 -1 14.0000 118.000 0 19 1002 14.6000 119.400 TC 15 14.5571 119.453 1 15 2 119
1979271N13113 1979 95 WP MM SARAH 1979-09-30 21:00:00 TS 14.4856 119.432 main 82 72 P_P______PP___ WP221979 14.5500 119.600 15 -1 14.1476 118.367 0 21 1002 14.5500 119.600 TC 15 14.5257 119.629 1 15 2 119
1979271N13113 1979 95 WP MM SARAH 1979-10-01 00:00:00 TS 14.4312 119.481 1004 tokyo main 78 70 OOO______OO___ jtwc_wp WP221979 14.5000 119.800 15 -1 14.0000 118.000 2 1004 0 0 0 14.3000 118.700 1 23 1002 14.5000 119.800 TC 15 14.5000 119.800 1 15 1 107
1979271N13113 1979 95 WP MM SARAH 1979-10-01 03:00:00 TS 14.4480 119.561 main 70 63 PPP______PP___ WP221979 14.4925 120.000 15 -1 14.1775 118.067 2 1003 0 0 14.4574 118.973 1 26 1000 14.4925 120.000 TC 15 14.4847 120.016 1 15 2 57
1979271N13113 1979 95 WP MM SARAH 1979-10-01 06:00:00 TS 14.5255 119.631 1002 tokyo main 63 48 OOOO_____OP___ jtwc_wp WP221979 14.5000 120.200 15 -1 14.4000 118.100 2 1002 0 0 0 14.6000 119.200 1 29 999 15.0000 119.000 TD 25 1000 14.5000 120.200 TC 15 14.4776 120.230 1 15 2 46
1979271N13113 1979 95 WP MM SARAH 1979-10-01 09:00:00 TS 14.5862 119.708 main 48 31 PPPP_____PP___ WP221979 14.5000 120.415 15 -1 14.6924 118.098 2 1001 0 0 14.7075 119.408 1 29 999 14.6852 119.263 TD 25 1000 14.5000 120.415 TC 15 14.4816 120.429 1 15 2 66
1979271N13113 1979 95 WP MM SARAH 1979-10-01 12:00:00 TS 14.6261 119.865 1000 tokyo main 31 24 OOOO_____OO___ jtwc_wp WP221979 14.5000 120.600 15 -1 15.0000 118.200 2 1000 0 0 0 14.8000 119.600 1 29 999 14.4000 119.500 TD 25 1000 14.5000 120.600 TC 15 14.5000 120.600 1 15 3 80
1979271N13113 1979 95 WP MM SARAH 1979-10-01 15:00:00 TS 14.6454 120.042 main 24 0 PPPP_____PP___ WP221979 14.4850 120.715 15 -1 15.2575 118.532 2 1000 0 0 14.9150 119.830 1 29 999 14.1946 119.725 TD 25 1000 14.4850 120.715 TC 15 14.5355 120.737 1 15 4 77
1979271N13113 1979 95 WP MM SARAH 1979-10-01 18:00:00 TS 14.7142 120.257 1000 tokyo main 0 0 OOOO_____OP___ jtwc_wp WP221979 14.5000 120.800 15 -1 15.5000 119.000 2 1000 0 0 0 15.0000 120.000 1 29 1000 14.2000 120.100 TD 25 1000 14.5000 120.800 TC 15 14.5849 120.845 1 15 5 66
1979271N13113 1979 95 WP MM SARAH 1979-10-01 21:00:00 TS 14.8542 120.521 main 0 0 PPPP_____PP___ WP221979 14.5925 120.907 15 -1 15.7727 119.522 2 1000 0 0 14.9849 119.993 1 29 1000 14.5409 120.864 TD 25 1001 14.5925 120.907 TC 15 14.6418 120.931 1 15 6 57
1979271N13113 1979 95 WP MM SARAH 1979-10-02 00:00:00 TS 15.0174 120.730 1000 tokyo main 0 0 OOOO_____OO___ jtwc_wp WP221979 14.7000 121.000 15 -1 16.0000 120.000 2 1000 0 0 0 15.0000 120.000 1 29 1000 15.0000 121.600 TD 25 1002 14.7000 121.000 TC 15 14.7000 121.000 1 15 4 49
1979271N13113 1979 95 WP MM SARAH 1979-10-02 03:00:00 TS 15.1305 120.853 main 0 0 PPPP_____PP___ WP221979 14.7575 121.058 15 -1 16.1298 120.288 2 1000 0 0 15.1551 120.235 1 29 999 15.3444 121.933 TD 25 1001 14.7575 121.058 TC 15 14.7459 121.089 1 15 3 44
1979271N13113 1979 95 WP MM SARAH 1979-10-02 06:00:00 TS 15.2176 120.926 1000 tokyo main 0 0 OOOO_____OP___ jtwc_wp WP221979 14.8000 121.100 15 -1 16.2000 120.500 2 1000 0 0 0 15.4000 120.500 1 29 999 15.6000 122.000 TD 25 1000 14.8000 121.100 TC 15 14.7925 121.160 1 15 2 37
1979271N13113 1979 95 WP MM SARAH 1979-10-02 09:00:00 TS 15.3031 120.987 main 0 0 PPP______PP___ WP221979 14.8350 121.158 15 -1 16.3176 120.787 2 1000 0 0 15.6850 120.630 1 29 999 TD 14.8350 121.158 TC 15 14.8428 121.201 1 15 2 35
1979271N13113 1979 95 WP MM SARAH 1979-10-02 12:00:00 TS 15.4000 121.060 1000 tokyo main 0 0 OOO______OO___ jtwc_wp WP221979 14.9000 121.200 15 -1 16.3000 121.000 2 1000 0 0 0 16.0000 120.700 1 29 999 14.9000 121.200 TC 15 14.9000 121.200 1 15 2 29
1979271N13113 1979 95 WP MM SARAH 1979-10-02 15:00:00 TS 15.4917 121.092 main 0 0 PPP______PP___ WP221979 15.0575 121.237 15 -1 16.0025 121.037 2 1000 0 0 16.3450 120.802 1 29 999 15.0575 121.237 TC 15 14.9963 121.147 1 15 1 0
1979271N13113 1979 95 WP MM SARAH 1979-10-02 18:00:00 TS 15.5390 121.051 1000 tokyo main 0 0 OOO______OP___ jtwc_wp WP221979 15.2000 121.200 15 -1 15.6000 121.000 2 1000 0 0 0 16.6000 120.800 1 29 999 15.2000 121.200 TC 15 15.0950 121.053 1 15 2 280
1979271N13113 1979 95 WP MM SARAH 1979-10-02 21:00:00 TS 15.5213 120.911 main 0 0 PPP______PP___ WP221979 15.2376 121.015 15 -1 15.2700 121.015 2 1001 0 0 16.6901 120.580 1 29 999 15.2376 121.015 TC 15 15.1713 120.932 1 15 3 252
1979271N13113 1979 95 WP MM SARAH 1979-10-03 00:00:00 TS 15.4400 120.740 1002 tokyo main 0 0 OOO______OO___ jtwc_wp WP221979 15.2000 120.800 15 -1 15.0000 121.000 2 1002 0 0 0 16.6000 120.300 1 29 999 15.2000 120.800 TC 15 15.2000 120.800 1 15 4 233
1979271N13113 1979 95 WP MM SARAH 1979-10-03 03:00:00 TS 15.3105 120.621 main 0 0 PPP______PP___ WP221979 15.1150 120.693 15 -1 14.8200 120.923 2 1002 0 0 16.3525 120.112 1 29 998 15.1150 120.693 TC 15 15.1503 120.686 1 15 4 217
1979271N13113 1979 95 WP MM SARAH 1979-10-03 06:00:00 TS 15.1505 120.513 1002 tokyo main 0 0 OOO______OP___ jtwc_wp WP221979 15.0000 120.600 15 -1 14.7000 120.800 2 1002 0 0 0 16.0000 120.000 1 29 998 15.0000 120.600 TC 15 15.0525 120.565 1 15 4 215
1979271N13113 1979 95 WP MM SARAH 1979-10-03 09:00:00 TS 14.9972 120.391 main 0 0 PPP______PP___ WP221979 14.9000 120.458 15 -1 14.5925 120.658 2 1002 0 0 15.6649 119.947 1 29 998 14.9000 120.458 TC 15 14.9284 120.436 1 15 4 216
1979271N13113 1979 95 WP MM SARAH 1979-10-03 12:00:00 TS 14.8400 120.280 1002 tokyo main 0 0 OOO______OO___ jtwc_wp WP221979 14.8000 120.300 15 -1 14.5000 120.500 2 1002 0 0 0 15.3000 120.000 1 29 998 14.8000 120.300 TC 15 14.8000 120.300 1 15 4 209
1979271N13113 1979 95 WP MM SARAH 1979-10-03 15:00:00 TS 14.6621 120.200 main 0 0 PPP______PP___ WP221979 14.7000 120.150 17 -1 14.3925 120.342 2 1001 0 0 14.8101 120.200 1 29 998 14.7000 120.150 TC 17 14.7081 120.157 1 16 4 206
1979271N13113 1979 95 WP MM SARAH 1979-10-03 18:00:00 TS 14.5230 120.122 1000 tokyo main 24 24 OOO______OP___ jtwc_wp WP221979 14.6000 120.000 20 -1 14.3000 120.200 2 1000 0 0 0 14.5000 120.400 1 29 998 14.6000 120.000 TC 20 14.6150 120.008 1 17 3 226
1979271N13113 1979 95 WP MM SARAH 1979-10-03 21:00:00 TS 14.4894 120.012 main 31 31 PPP______PP___ WP221979 14.5000 119.843 20 -1 14.2425 120.093 2 1000 0 0 14.6900 120.430 1 29 998 14.5000 119.843 TC 20 14.5144 119.854 1 18 2 259
1979271N13113 1979 95 WP MM SARAH 1979-10-04 00:00:00 TS 14.4800 119.900 1000 tokyo main 39 39 OOO______OO___ jtwc_wp WP221979 14.4000 119.700 20 -1 14.2000 120.000 2 1000 0 0 0 15.0000 120.400 1 29 998 14.4000 119.700 TC 20 14.4000 119.700 1 20 2 252
1979271N13113 1979 95 WP MM SARAH 1979-10-04 03:00:00 TS 14.4255 119.818 main 54 54 PPP______PP___ WP221979 14.3150 119.608 25 -1 14.1500 119.908 2 1000 0 0 15.0750 120.430 1 29 998 14.3150 119.608 TC 25 14.2725 119.538 1 22 2 229
1979271N13113 1979 95 WP MM SARAH 1979-10-04 06:00:00 TS 14.3260 119.715 1000 tokyo main 70 70 OOO______OP___ jtwc_wp WP221979 14.2000 119.500 30 -1 14.1000 119.800 2 1000 0 0 0 15.0000 120.400 1 29 998 14.2000 119.500 TC 30 14.1300 119.377 1 25 4 226
1979271N13113 1979 95 WP MM SARAH 1979-10-04 09:00:00 TS 14.1665 119.543 main 93 93 PPP______PP___ WP221979 14.0075 119.307 30 -1 14.0575 119.658 2 999 0 0 14.7876 120.215 1 29 998 14.0075 119.307 TC 30 13.9725 119.228 1 27 5 224
1979271N13113 1979 95 WP MM SARAH 1979-10-04 12:00:00 TS 13.9810 119.376 998 tokyo main 116 116 OOO______OO___ jtwc_wp WP221979 13.8000 119.100 30 -1 14.0000 119.500 2 998 0 0 0 14.5000 120.000 1 29 998 13.8000 119.100 TC 30 13.8000 119.100 1 30 5 221
1979271N13113 1979 95 WP MM SARAH 1979-10-04 15:00:00 TS 13.8224 119.232 main 127 123 PPP______PP___ WP221979 13.6575 118.920 32 -1 13.9150 119.358 2 997 0 0 14.2425 119.885 1 29 998 13.6575 118.920 TC 32 13.6021 118.971 1 32 4 219
1979271N13113 1979 95 WP MM SARAH 1979-10-04 18:00:00 TS 13.6596 119.107 35 996 tokyo main 134 131 OOO______OP___ jtwc_wp WP221979 13.5000 118.800 35 0 13.8000 119.200 3 35 996 0 8 150 100 0 14.0000 119.800 1 29 998 13.5000 118.800 TC 35 13.3924 118.867 1 35 4 213
1979271N13113 1979 95 WP MM SARAH 1979-10-04 21:00:00 TS 13.4794 118.999 main 141 140 PPP______PP___ WP221979 13.2500 118.763 37 0 13.6875 118.977 3 37 995 0 8 150 125 13.8075 119.700 1 33 996 13.2500 118.763 TC 37 13.1865 118.805 1 37 4 203
1979271N13113 1979 95 WP MM SARAH 1979-10-05 00:00:00 TS 13.2667 118.933 40 994 tokyo main 151 151 OOO______OO___ jtwc_wp WP221979 13.0000 118.800 40 0 13.5000 118.800 3 40 994 0 9 150 150 0 13.6000 119.600 2 38 995 13.0000 118.800 TC 40 13.0000 118.800 2 40 5 192
1979271N13113 1979 95 WP MM SARAH 1979-10-05 03:00:00 TS 13.0063 118.901 main 158 158 PPP______PP___ WP221979 12.8275 118.878 40 0 13.1499 118.732 3 40 993 0 9 175 125 13.3075 119.492 2 38 992 12.8275 118.878 TC 40 12.8332 118.872 2 40 5 178
1979271N13113 1979 95 WP MM SARAH 1979-10-05 06:00:00 TS 12.7650 118.950 40 992 tokyo main 165 151 OOO______OP___ jtwc_wp WP221979 12.7000 119.000 40 0 12.8000 118.800 3 40 992 0 7 200 100 0 13.0000 119.400 2 38 990 12.7000 119.000 TC 40 12.6901 118.998 2 40 5 152
1979271N13113 1979 95 WP MM SARAH 1979-10-05 09:00:00 TS 12.5971 119.123 main 151 136 PPP______PP___ WP221979 12.5775 119.150 40 0 12.5976 119.035 3 42 991 0 7 200 100 12.7125 119.335 2 38 990 12.5775 119.150 TC 40 12.5769 119.150 2 40 4 126
1979271N13113 1979 95 WP MM SARAH 1979-10-05 12:00:00 TS 12.5000 119.317 45 990 tokyo main 136 134 OOO______OO___ jtwc_wp WP221979 12.5000 119.300 40 0 12.5000 119.300 3 45 990 0 7 200 100 0 12.5000 119.300 2 38 990 12.5000 119.300 TC 40 12.5000 119.300 2 40 3 114
1979271N13113 1979 95 WP MM SARAH 1979-10-05 15:00:00 TS 12.4707 119.411 main 134 132 PPP______PP___ WP221979 12.4850 119.407 40 0 12.4850 119.430 3 42 991 0 7 200 100 12.4125 119.293 2 38 990 12.4850 119.407 TC 40 12.4722 119.427 2 40 2 98
1979271N13113 1979 95 WP MM SARAH 1979-10-05 18:00:00 TS 12.4796 119.474 40 992 tokyo main 132 125 OOO______OP___ jtwc_wp WP221979 12.5000 119.500 40 0 12.5000 119.500 3 40 992 0 7 200 100 0 12.4000 119.300 2 38 990 12.5000 119.500 TC 40 12.4775 119.545 2 40 1 86
1979271N13113 1979 95 WP MM SARAH 1979-10-05 21:00:00 TS 12.4803 119.556 main 125 125 PPP______PP___ WP221979 12.5075 119.615 40 0 12.4575 119.565 3 40 993 0 7 175 125 12.4075 119.293 2 38 990 12.5075 119.615 TC 40 12.4941 119.640 2 40 1 95
1979271N13113 1979 95 WP MM SARAH 1979-10-06 00:00:00 TS 12.4667 119.617 40 994 tokyo main 125 123 OOO______OO___ jtwc_wp WP221979 12.5000 119.700 40 0 12.4000 119.600 3 40 994 0 9 150 150 0 12.4000 119.300 2 38 990 12.5000 119.700 TC 40 12.5000 119.700 2 40 1 130
1979271N13113 1979 95 WP MM SARAH 1979-10-06 03:00:00 TS 12.4125 119.641 main 123 123 PPP______PP___ WP221979 12.4575 119.723 40 0 12.3425 119.615 3 40 995 0 9 150 150 12.3000 119.350 2 38 992 12.4575 119.723 TC 40 12.4603 119.715 2 41 1 167
1979271N13113 1979 95 WP MM SARAH 1979-10-06 06:00:00 TS 12.3512 119.633 40 996 tokyo main 123 111 OOO______OP___ jtwc_wp WP221979 12.4000 119.700 40 0 12.3000 119.600 3 40 996 0 9 150 150 0 12.2000 119.400 2 38 995 12.4000 119.700 TC 40 12.4075 119.695 2 42 1 198
1979271N13113 1979 95 WP MM SARAH 1979-10-06 09:00:00 TS 12.3131 119.597 main 111 111 PPP______PP___ WP221979 12.3500 119.658 42 0 12.3000 119.550 3 37 996 0 9 175 120 12.1850 119.408 2 38 995 12.3500 119.658 TC 42 12.3509 119.652 2 43 1 230
1979271N13113 1979 95 WP MM SARAH 1979-10-06 12:00:00 TS 12.2833 119.550 35 996 tokyo main 111 111 OOO______OO___ jtwc_wp WP221979 12.3000 119.600 45 0 12.3000 119.500 3 35 996 0 8 200 90 0 12.2000 119.400 2 38 995 12.3000 119.600 TC 45 12.3000 119.600 2 45 1 231
1979271N13113 1979 95 WP MM SARAH 1979-10-06 15:00:00 TS 12.2518 119.518 main 111 100 PPP______PP___ WP221979 12.2425 119.550 47 0 12.2500 119.500 3 35 997 0 8 200 90 12.2000 119.400 2 38 995 12.2425 119.550 TC 47 12.2759 119.557 2 48 1 230
1979271N13113 1979 95 WP MM SARAH 1979-10-06 18:00:00 TS 12.2263 119.485 35 998 tokyo main 100 100 OOO______OP___ jtwc_wp WP221979 12.2000 119.500 50 0 12.2000 119.500 3 35 998 0 8 200 90 0 12.2000 119.400 2 38 995 12.2000 119.500 TC 50 12.2575 119.508 2 52 1 246
1979271N13113 1979 95 WP MM SARAH 1979-10-06 21:00:00 TS 12.2192 119.449 main 101 101 PPP______PP___ WP221979 12.2000 119.458 55 0 12.2075 119.458 3 35 998 0 8 190 90 12.2150 119.408 2 38 992 12.2000 119.458 TC 55 12.2353 119.454 2 56 1 251
1979271N13113 1979 95 WP MM SARAH 1979-10-07 00:00:00 TS 12.2000 119.400 35 998 tokyo main 101 92 OOO______OO___ jtwc_wp WP221979 12.2000 119.400 60 0 12.2000 119.400 3 35 998 0 8 180 90 0 12.2000 119.400 2 38 990 12.2000 119.400 TC 60 12.2000 119.400 2 60 1 239
1979271N13113 1979 95 WP MM SARAH 1979-10-07 03:00:00 TS 12.1436 119.321 main 92 92 PPP______PP___ WP221979 12.1650 119.292 67 1 12.1150 119.350 3 47 991 0 8 190 145 12.1075 119.357 2 48 987 12.1650 119.292 TC 67 12.1516 119.342 2 63 2 228
1979271N13113 1979 95 WP MM SARAH 1979-10-07 06:00:00 TS 12.0646 119.248 60 985 tokyo main 95 84 OOO______OP___ jtwc_wp WP221979 12.1000 119.200 75 1 12.0000 119.300 4 60 985 9 20 20 9 200 200 0 12.0000 119.300 3 58 985 12.1000 119.200 TC 75 12.0875 119.285 2 67 2 214
1979271N13113 1979 95 WP MM SARAH 1979-10-07 09:00:00 TS 11.9820 119.213 main 84 74 PPP______PP___ WP221979 12.0150 119.185 75 1 11.9000 119.243 4 62 982 9 25 25 9 150 150 11.9500 119.243 3 58 985 12.0150 119.185 TC 75 12.0047 119.236 2 71 2 192
1979271N13113 1979 95 WP MM SARAH 1979-10-07 12:00:00 TS 11.8833 119.200 65 980 tokyo main 74 64 OOO______OO___ jtwc_wp WP221979 11.9000 119.200 75 1 11.8000 119.200 5 65 980 9 30 30 9 100 100 0 11.9000 119.200 3 58 985 11.9000 119.200 TC 75 11.9000 119.200 4 75 2 185
1979271N13113 1979 95 WP MM SARAH 1979-10-07 15:00:00 TS 11.7662 119.196 main 64 46 PPP______PP___ WP221979 11.7575 119.200 75 1 11.7000 119.193 5 65 980 9 25 25 9 100 100 11.8075 119.193 3 58 985 11.7575 119.200 TC 75 11.7675 119.190 4 75 2 0
1979271N13113 1979 95 WP MM SARAH 1979-10-07 18:00:00 TS 11.6358 119.199 65 980 tokyo main 46 39 OOO______OP___ jtwc_wp WP221979 11.6000 119.200 75 1 11.6000 119.200 5 65 980 9 20 20 9 100 100 0 11.7000 119.200 3 58 985 11.6000 119.200 TC 75 11.6150 119.193 4 75 3 176
1979271N13113 1979 95 WP MM SARAH 1979-10-07 21:00:00 TS 11.5046 119.204 main 39 31 PPP______PP___ WP221979 11.4500 119.200 75 1 11.5075 119.215 5 65 982 9 20 20 9 100 100 11.6075 119.208 3 58 984 11.4500 119.200 TC 75 11.4550 119.199 4 75 3 0
1979271N13113 1979 95 WP MM SARAH 1979-10-08 00:00:00 TS 11.3667 119.200 65 985 tokyo main 31 21 OOO______OO___ jtwc_wp WP221979 11.3000 119.200 75 1 11.4000 119.200 5 65 985 9 20 20 9 100 100 0 11.5000 119.200 3 58 983 11.3000 119.200 TC 75 11.3000 119.200 4 75 3 0
1979271N13113 1979 95 WP MM SARAH 1979-10-08 03:00:00 TS 11.2055 119.189 main 21 21 PPP______PP___ WP221979 11.1425 119.208 75 1 11.2425 119.122 5 65 982 9 20 20 9 100 100 11.3350 119.165 3 58 981 11.1425 119.208 TC 75 11.1353 119.207 4 75 3 191
1979271N13113 1979 95 WP MM SARAH 1979-10-08 06:00:00 TS 11.0637 119.150 65 980 tokyo main 21 21 OOO______OP___ jtwc_wp WP221979 11.0000 119.200 75 1 11.1000 119.000 5 65 980 9 20 20 9 100 100 0 11.2000 119.100 3 58 980 11.0000 119.200 TC 75 10.9824 119.202 4 75 3 204
1979271N13113 1979 95 WP MM SARAH 1979-10-08 09:00:00 TS 10.9676 119.078 main 24 24 PPP______PP___ WP221979 10.8625 119.172 75 1 11.0200 118.857 5 65 980 9 20 20 9 100 100 11.1775 119.015 3 58 980 10.8625 119.172 TC 75 10.8634 119.172 4 75 2 234
1979271N13113 1979 95 WP MM SARAH 1979-10-08 12:00:00 TS 10.9333 118.967 65 980 tokyo main 32 32 OOO______OO___ jtwc_wp WP221979 10.8000 119.100 75 1 11.0000 118.700 5 65 980 9 20 20 9 100 100 0 11.2000 118.900 3 58 980 10.8000 119.100 TC 75 10.8000 119.100 4 75 2 272
1979271N13113 1979 95 WP MM SARAH 1979-10-08 15:00:00 TS 10.9744 118.825 main 55 55 PPP______PP___ WP221979 10.8775 118.973 75 1 11.0350 118.558 5 65 980 9 20 20 9 95 95 11.1925 118.757 3 63 977 10.8775 118.973 TC 75 10.8216 118.980 4 77 3 291
1979271N13113 1979 95 WP MM SARAH 1979-10-08 18:00:00 TS 11.0496 118.653 65 980 tokyo main 66 66 OOO______OP___ jtwc_wp WP221979 11.0000 118.800 75 1 11.1000 118.400 5 65 980 9 20 20 9 90 90 0 11.2000 118.600 4 68 975 11.0000 118.800 TC 75 10.8975 118.818 4 80 4 290
1979271N13113 1979 95 WP MM SARAH 1979-10-08 21:00:00 TS 11.0999 118.472 main 90 90 PPP______PP___ WP221979 11.0500 118.622 80 1 11.1500 118.200 5 65 975 9 20 20 9 90 90 11.2500 118.465 4 68 972 11.0500 118.622 TC 80 10.9997 118.621 4 82 4 285
1979271N13113 1979 95 WP MM SARAH 1979-10-09 00:00:00 TS 11.1500 118.267 65 970 tokyo main 114 111 OOO______OO___ jtwc_wp WP221979 11.1000 118.400 85 2 11.2000 118.000 5 65 970 9 20 20 9 90 90 0 11.3000 118.300 4 68 970 11.1000 118.400 TC 85 11.1000 118.400 4 85 5 284
1979271N13113 1979 95 WP MM SARAH 1979-10-09 03:00:00 TS 11.2108 118.028 main 145 145 PPP______PP___ WP221979 11.2076 118.100 87 2 11.2500 117.850 5 67 962 9 27 27 9 95 95 11.3000 118.057 4 77 967 11.2076 118.100 TC 87 11.1573 118.159 4 86 5 284
1979271N13113 1979 95 WP MM SARAH 1979-10-09 06:00:00 TS 11.2679 117.783 70 955 tokyo main 169 169 OOO______OP___ jtwc_wp WP221979 11.3000 117.800 90 2 11.3000 117.700 5 70 955 9 35 35 9 100 100 0 11.3000 117.800 5 87 965 11.3000 117.800 TC 90 11.2076 117.900 4 87 5 282
1979271N13113 1979 95 WP MM SARAH 1979-10-09 09:00:00 TS 11.3032 117.566 main 187 187 PPP______PP___ WP221979 11.3075 117.577 90 2 11.3500 117.507 5 75 952 9 32 32 9 100 100 11.3500 117.593 5 87 960 11.3075 117.577 TC 90 11.2541 117.641 4 88 4 279
1979271N13113 1979 95 WP MM SARAH 1979-10-09 12:00:00 TS 11.3333 117.367 80 950 tokyo main 203 203 OOO______OO___ jtwc_wp WP221979 11.3000 117.400 90 2 11.4000 117.300 5 80 950 9 30 30 9 100 100 0 11.4000 117.400 5 87 955 11.3000 117.400 TC 90 11.3000 117.400 4 90 4 280
1979271N13113 1979 95 WP MM SARAH 1979-10-09 15:00:00 TS 11.3725 117.183 main 227 227 PPP______PP___ WP221979 11.3425 117.250 92 2 11.4500 117.093 5 80 945 9 30 30 9 150 100 11.4000 117.200 5 87 950 11.3425 117.250 TC 92 11.3499 117.203 4 95 4 283
1979271N13113 1979 95 WP MM SARAH 1979-10-09 18:00:00 TS 11.4166 117.005 80 940 tokyo main 244 244 OOO______OP___ jtwc_wp WP221979 11.4000 117.100 95 2 11.5000 116.900 5 80 940 9 30 30 8 200 100 0 11.4000 117.000 5 87 945 11.4000 117.100 TC 95 11.3999 117.027 4 100 4 285
1979271N13113 1979 95 WP MM SARAH 1979-10-09 21:00:00 TS 11.4641 116.821 main 269 269 PPP______PP___ WP221979 11.4500 116.908 102 3 11.5500 116.750 5 85 937 9 30 30 8 200 100 11.4350 116.800 5 92 941 11.4500 116.908 TC 102 11.4499 116.863 4 105 4 285
1979271N13113 1979 95 WP MM SARAH 1979-10-10 00:00:00 TS 11.5167 116.633 90 935 tokyo main 287 287 OOO______OO___ jtwc_wp WP221979 11.5000 116.700 110 3 11.6000 116.600 5 90 935 9 30 30 8 200 100 0 11.5000 116.600 5 97 938 11.5000 116.700 TC 110 11.5000 116.700 4 110 4 286
1979271N13113 1979 95 WP MM SARAH 1979-10-10 03:00:00 TS 11.5763 116.429 main 309 309 PPP______PP___ WP221979 11.5500 116.493 110 3 11.6575 116.393 5 90 932 9 37 37 8 225 112 11.6000 116.393 5 97 935 11.5500 116.493 TC 110 11.5500 116.517 4 107 4 287
1979271N13113 1979 95 WP MM SARAH 1979-10-10 06:00:00 TS 11.6333 116.239 90 930 tokyo main 320 320 OOO______OP___ jtwc_wp WP221979 11.6000 116.300 110 3 11.7000 116.200 5 90 930 9 45 45 8 250 125 0 11.7000 116.200 5 97 932 11.6000 116.300 TC 110 11.6000 116.335 4 105 3 287
1979271N13113 1979 95 WP MM SARAH 1979-10-10 09:00:00 TS 11.6762 116.089 main 336 336 PPP______PP___ WP221979 11.6500 116.135 105 3 11.7000 116.085 5 90 935 9 45 45 8 250 125 11.7575 116.035 5 97 936 11.6500 116.135 TC 105 11.6500 116.161 4 102 3 288
1979271N13113 1979 95 WP MM SARAH 1979-10-10 12:00:00 TS 11.7167 115.967 90 940 tokyo main 342 342 OOO______OO___ jtwc_wp WP221979 11.7000 116.000 100 3 11.7000 116.000 5 90 940 9 45 45 8 250 125 0 11.8000 115.900 5 97 940 11.7000 116.000 TC 100 11.7000 116.000 4 100 2 292
1979271N13113 1979 95 WP MM SARAH 1979-10-10 15:00:00 TS 11.7647 115.861 main 357 357 PPP______PP___ WP221979 11.7500 115.900 100 3 11.7425 115.908 5 90 942 9 45 45 8 250 137 11.8500 115.792 5 97 942 11.7500 115.900 TC 100 11.7459 115.869 4 100 2 296
1979271N13113 1979 95 WP MM SARAH 1979-10-10 18:00:00 TS 11.8154 115.758 90 945 tokyo main 364 364 OOO______OP___ jtwc_wp WP221979 11.8000 115.800 100 3 11.8000 115.800 5 90 945 9 45 45 8 250 150 0 11.9000 115.700 5 97 945 11.8000 115.800 TC 100 11.7924 115.750 4 100 2 294
1979271N13113 1979 95 WP MM SARAH 1979-10-10 21:00:00 TS 11.8617 115.644 main 386 386 PPP______PP___ WP221979 11.8425 115.665 100 3 11.8425 115.672 5 90 950 9 45 45 8 250 150 11.9500 115.615 5 92 950 11.8425 115.665 TC 100 11.8427 115.631 4 100 3 292
1979271N13113 1979 95 WP MM SARAH 1979-10-11 00:00:00 TS 11.9167 115.500 90 955 tokyo main 393 393 OOO______OO___ jtwc_wp WP221979 11.9000 115.500 100 3 11.9000 115.500 5 90 955 9 45 45 8 250 150 0 12.0000 115.500 5 87 955 11.9000 115.500 TC 100 11.9000 115.500 4 100 4 291
1979271N13113 1979 95 WP MM SARAH 1979-10-11 03:00:00 TS 11.9914 115.302 main 416 416 PPP______PP___ WP221979 12.0000 115.300 95 2 12.0000 115.250 5 87 957 9 60 60 8 225 175 12.0500 115.308 5 87 957 12.0000 115.300 TC 95 11.9556 115.339 4 96 4 291
1979271N13113 1979 95 WP MM SARAH 1979-10-11 06:00:00 TS 12.0700 115.094 85 960 tokyo main 438 438 OOO______OP___ jtwc_wp WP221979 12.1000 115.100 90 2 12.1000 115.000 5 85 960 9 75 75 9 200 200 0 12.1000 115.100 5 87 960 12.1000 115.100 TC 90 12.0200 115.165 4 92 4 291
1979271N13113 1979 95 WP MM SARAH 1979-10-11 09:00:00 TS 12.1295 114.925 main 453 453 PPP______PP___ WP221979 12.1500 114.942 87 2 12.1424 114.842 5 85 960 9 75 75 9 200 200 12.1425 114.950 5 82 960 12.1500 114.942 TC 87 12.0994 114.983 4 88 3 292
1979271N13113 1979 95 WP MM SARAH 1979-10-11 12:00:00 TS 12.2000 114.767 85 960 tokyo main 469 469 OOO______OO___ jtwc_wp WP221979 12.2000 114.800 85 2 12.2000 114.700 5 85 960 9 75 75 9 200 200 0 12.2000 114.800 4 77 960 12.2000 114.800 TC 85 12.2000 114.800 4 85 4 299
1979271N13113 1979 95 WP MM SARAH 1979-10-11 15:00:00 TS 12.3038 114.599 main 492 492 PPP______PP___ WP221979 12.2775 114.657 80 1 12.3425 114.500 5 80 960 9 72 72 9 200 200 12.2850 114.607 4 77 960 12.2775 114.657 TC 80 12.3406 114.629 4 82 4 305
1979271N13113 1979 95 WP MM SARAH 1979-10-11 18:00:00 TS 12.4333 114.426 75 960 tokyo main 516 516 OOO______OP___ jtwc_wp WP221979 12.4000 114.500 75 1 12.5000 114.300 5 75 960 9 70 70 9 200 200 0 12.4000 114.400 4 77 960 12.4000 114.500 TC 75 12.4999 114.458 4 80 4 310
1979271N13113 1979 95 WP MM SARAH 1979-10-11 21:00:00 TS 12.5899 114.247 main 510 499 PPP______PP___ WP221979 12.6075 114.300 75 1 12.6150 114.150 5 72 962 9 70 70 9 200 200 12.5575 114.193 4 77 960 12.6075 114.300 TC 75 12.6593 114.282 4 77 5 310
1979271N13113 1979 95 WP MM SARAH 1979-10-12 00:00:00 TS 12.7333 114.067 70 965 tokyo main 499 477 OOO______OO___ jtwc_wp WP221979 12.8000 114.100 75 1 12.7000 114.000 5 70 965 9 70 70 9 200 200 0 12.7000 114.000 4 77 960 12.8000 114.100 TC 75 12.8000 114.100 4 75 4 303
1979271N13113 1979 95 WP MM SARAH 1979-10-12 03:00:00 TS 12.8109 113.898 main 477 455 PPP______PP___ WP221979 12.8649 113.957 72 1 12.7425 113.800 5 70 965 9 70 70 9 200 200 12.7424 113.857 4 77 960 12.8649 113.957 TC 72 12.9006 113.903 4 72 4 293
1979271N13113 1979 95 WP MM SARAH 1979-10-12 06:00:00 TS 12.8800 113.717 70 965 tokyo main 455 433 OOO______OP___ jtwc_wp WP221979 12.9000 113.800 70 1 12.8000 113.600 5 70 965 9 70 70 9 200 200 0 12.8000 113.700 4 77 960 12.9000 113.800 TC 70 12.9800 113.700 4 70 4 296
1979271N13113 1979 95 WP MM SARAH 1979-10-12 09:00:00 TS 13.0003 113.496 main 433 412 PPP______PP___ WP221979 13.0000 113.558 67 1 12.9500 113.450 5 70 965 9 70 70 9 200 200 13.0000 113.473 4 77 962 13.0000 113.558 TC 67 13.0444 113.497 4 67 5 298
1979271N13113 1979 95 WP MM SARAH 1979-10-12 12:00:00 TS 13.1167 113.267 70 965 tokyo main 412 391 OOO______OO___ jtwc_wp WP221979 13.1000 113.300 65 1 13.1000 113.300 5 70 965 9 70 70 9 200 200 0 13.2000 113.200 4 77 965 13.1000 113.300 TC 65 13.1000 113.300 4 65 5 294
1979271N13113 1979 95 WP MM SARAH 1979-10-12 15:00:00 TS 13.1893 113.056 main 391 370 PPP______PP___ WP221979 13.1575 113.085 65 1 13.1725 113.107 5 70 965 9 67 67 9 200 200 13.2725 112.892 4 72 965 13.1575 113.085 TC 65 13.1611 113.126 4 63 4 287
1979271N13113 1979 95 WP MM SARAH 1979-10-12 18:00:00 TS 13.2358 112.860 70 965 tokyo main 370 349 OOO______OP___ jtwc_wp WP221979 13.2000 112.900 65 1 13.2000 112.900 5 70 965 9 65 65 9 200 200 0 13.3000 112.600 4 68 965 13.2000 112.900 TC 65 13.2149 112.957 4 62 4 283
1979271N13113 1979 95 WP MM SARAH 1979-10-12 21:00:00 TS 13.2710 112.681 main 349 328 PPP______PP___ WP221979 13.2499 112.757 62 0 13.2075 112.700 5 70 965 9 65 65 9 200 200 13.3500 112.377 4 68 965 13.2499 112.757 TC 62 13.2611 112.785 4 61 4 280
1979271N13113 1979 95 WP MM SARAH 1979-10-13 00:00:00 TS 13.3000 112.500 70 965 tokyo main 328 306 OOO______OO___ jtwc_wp WP221979 13.3000 112.600 60 0 13.2000 112.500 5 70 965 9 65 65 9 200 200 0 13.4000 112.200 4 68 965 13.3000 112.600 TC 60 13.3000 112.600 2 60 4 281
1979271N13113 1979 95 WP MM SARAH 1979-10-13 03:00:00 TS 13.3431 112.293 main 306 287 PPP______PP___ WP221979 13.3575 112.358 60 0 13.2000 112.293 5 70 965 9 65 65 9 200 200 13.4575 112.050 4 68 965 13.3575 112.358 TC 60 13.3362 112.397 2 60 4 281
1979271N13113 1979 95 WP MM SARAH 1979-10-13 06:00:00 TS 13.3775 112.080 70 965 tokyo main 287 265 OOO______OP___ jtwc_wp WP221979 13.4000 112.100 60 0 13.2000 112.100 5 70 965 9 65 65 9 200 200 0 13.5000 111.900 4 68 965 13.4000 112.100 TC 60 13.3649 112.180 2 60 4 276
1979271N13113 1979 95 WP MM SARAH 1979-10-13 09:00:00 TS 13.3860 111.885 main 265 244 PPP______PP___ WP221979 13.4074 111.907 60 0 13.2000 111.943 5 70 965 9 65 65 9 200 200 13.5075 111.707 4 68 965 13.4074 111.907 TC 60 13.3862 111.947 2 60 4 271
1979271N13113 1979 95 WP MM SARAH 1979-10-13 12:00:00 TS 13.3833 111.683 70 965 tokyo main 244 223 OOO______OO___ jtwc_wp WP221979 13.4000 111.700 60 0 13.2000 111.800 5 70 965 9 65 65 9 200 200 0 13.5000 111.500 4 68 965 13.4000 111.700 TC 60 13.4000 111.700 2 60 4 270
1979271N13113 1979 95 WP MM SARAH 1979-10-13 15:00:00 TS 13.3865 111.450 main 223 192 PPP______PP___ WP221979 13.4000 111.408 60 0 13.2000 111.665 5 65 965 9 57 57 9 190 190 13.5000 111.293 4 63 970 13.4000 111.408 TC 60 13.4113 111.435 2 58 5 270
1979271N13113 1979 95 WP MM SARAH 1979-10-13 18:00:00 TS 13.3858 111.210 60 965 tokyo main 192 171 OOO______OP___ jtwc_wp WP221979 13.4000 111.100 60 0 13.2000 111.500 4 60 965 9 50 50 9 180 180 0 13.5000 111.100 3 58 975 13.4000 111.100 TC 60 13.4150 111.158 2 57 4 269
1979271N13113 1979 95 WP MM SARAH 1979-10-13 21:00:00 TS 13.3806 110.989 main 171 151 PPP______PP___ WP221979 13.4074 110.850 57 0 13.2000 111.258 4 60 965 9 50 50 9 180 180 13.5075 110.950 3 58 977 13.4074 110.850 TC 57 13.4113 110.876 2 56 4 267
1979271N13113 1979 95 WP MM SARAH 1979-10-14 00:00:00 TS 13.3667 110.767 60 965 tokyo main 151 117 OOO______OO___ jtwc_wp WP221979 13.4000 110.600 55 0 13.2000 111.000 4 60 965 9 50 50 9 180 180 0 13.5000 110.800 3 58 980 13.4000 110.600 TC 55 13.4000 110.600 2 55 5 265
1979271N13113 1979 95 WP MM SARAH 1979-10-14 03:00:00 TS 13.3381 110.524 main 117 97 PPP______PP___ WP221979 13.3500 110.292 52 0 13.1999 110.808 4 60 965 9 50 50 9 180 180 13.4500 110.607 3 58 980 13.3500 110.292 TC 52 13.3862 110.339 2 53 5 263
1979271N13113 1979 95 WP MM SARAH 1979-10-14 06:00:00 TS 13.3108 110.281 60 965 tokyo main 97 78 OOO______OP___ jtwc_wp WP221979 13.3000 110.000 50 0 13.2000 110.600 4 60 965 9 50 50 9 180 180 0 13.4000 110.400 3 58 980 13.3000 110.000 TC 50 13.3649 110.085 2 52 5 266
1979271N13113 1979 95 WP MM SARAH 1979-10-14 09:00:00 TS 13.3085 110.053 main 78 54 PPP______PP___ WP221979 13.2999 109.793 50 0 13.2000 110.308 4 55 972 9 9 140 140 13.4150 110.185 3 53 985 13.2999 109.793 TC 50 13.3362 109.839 2 51 4 269
1979271N13113 1979 95 WP MM SARAH 1979-10-14 12:00:00 TS 13.3000 109.833 50 980 tokyo main 54 32 OOO______OO___ jtwc_wp WP221979 13.3000 109.600 50 0 13.2000 110.000 4 50 980 0 9 100 100 0 13.4000 110.000 3 48 990 13.3000 109.600 TC 50 13.3000 109.600 2 50 4 264
1979271N13113 1979 95 WP MM SARAH 1979-10-14 15:00:00 TS 13.2639 109.611 main 32 10 PPP______PP___ WP221979 13.2575 109.350 42 0 13.2150 109.743 4 42 985 0 9 100 100 13.2725 109.877 3 38 992 13.2575 109.350 TC 42 13.2735 109.339 2 42 4 257
1979271N13113 1979 95 WP MM SARAH 1979-10-14 18:00:00 TS 13.2068 109.425 35 990 tokyo main 10 0 OOO______OP___ jtwc_wp WP221979 13.2000 109.100 35 0 13.2000 109.500 3 35 990 0 9 100 100 0 13.1000 109.800 1 29 995 13.2000 109.100 TC 35 13.2376 109.090 2 35 4 249
1979271N13113 1979 95 WP MM SARAH 1979-10-14 21:00:00 TS 13.1336 109.260 main 0 0 PPP______PP___ WP221979 13.1475 108.888 27 -1 13.1000 109.250 3 994 0 9 12.9500 109.750 1 29 997 13.1475 108.888 TC 27 13.1829 108.871 2 27 4 243
1979271N13113 1979 95 WP MM SARAH 1979-10-15 00:00:00 TS 13.0375 109.075 998 tokyo main 0 0 OOO______OO___ jtwc_wp WP221979 13.1000 108.700 20 -1 13.0000 109.000 2 998 0 0 0 12.8000 109.700 1 29 1000 13.1000 108.700 TC 20 13.1000 108.700 1 20 4 239
1979271N13113 1979 95 WP MM SARAH 1979-10-15 03:00:00 TS 12.9274 108.908 main 0 0 _PP_______P___ WP221979 -1 12.9850 108.750 2 999 0 0 12.6500 109.612 1 24 1001 TC 12.9786 108.604 1 4 245
1979271N13113 1979 95 WP MM SARAH 1979-10-15 06:00:00 TS 12.8519 108.672 1000 tokyo main 0 0 _OO_______P___ -1 13.0000 108.500 2 1000 0 0 0 12.5000 109.500 0 19 1003 12.8299 108.555 1 5 262
1979271N13113 1979 95 WP MM SARAH 1979-10-15 09:00:00 TS 12.8519 108.374 main 0 0 _P________P___ -1 13.0375 108.220 2 1000 0 0 0 12.6662 108.529 1 4 256
1979271N13113 1979 95 WP MM SARAH 1979-10-15 12:00:00 TS 12.7500 108.250 1000 tokyo main 0 0 _O________O___ -1 13.0000 108.000 2 1000 0 0 0 12.5000 108.500 1 4 214
1979271N13113 1979 95 WP MM SARAH 1979-10-15 15:00:00 TS 12.5569 108.177 main 0 0 _P________P___ -1 12.7725 107.905 2 1002 0 0 12.3413 108.449 1 4 201
1979271N13113 1979 95 WP MM SARAH 1979-10-15 18:00:00 TS 12.3672 108.105 1004 tokyo main 0 0 _O________P___ -1 12.5000 107.900 2 1004 0 0 0 12.1901 108.377 1 3 204
1979271N13113 1979 95 WP MM SARAH 1979-10-15 21:00:00 TS 12.2479 108.039 main 0 0 _P________P___ -1 12.3500 107.912 2 1005 0 0 12.0438 108.292 1 2 197
1979271N13113 1979 95 WP MM SARAH 1979-10-16 00:00:00 TS 12.1400 108.040 1006 tokyo main 0 0 _O________O___ -1 12.2000 108.000 2 1006 0 0 0 11.9000 108.200 6 3 157
1979271N13113 1979 95 WP MM SARAH 1979-10-16 03:00:00 TS 11.9650 108.163 main 0 0 _P____________ -1 11.9650 108.163 2 1006 0 0 6 6 141
1979271N13113 1979 95 WP MM SARAH 1979-10-16 06:00:00 TS 11.7000 108.400 1006 tokyo main 0 0 _O____________ -1 11.7000 108.400 2 1006 0 0 0 6 8 136
1979271N13113 1979 95 WP MM SARAH 1979-10-16 09:00:00 TS 11.3826 108.730 main 0 0 _P____________ -1 11.3826 108.730 2 1007 0 0 6 8 130
1979271N13113 1979 95 WP MM SARAH 1979-10-16 12:00:00 TS 11.2000 109.000 1008 tokyo main 22 10 _O____________ -1 11.2000 109.000 2 1008 0 0 0 4 86
1979271N13113 1979 95 WP MM SARAH 1979-10-16 15:00:00 TS 11.4073 109.120 main 10 0 _P____________ -1 11.4073 109.120 2 1008 0 0 4 0
1979271N13113 1979 95 WP MM SARAH 1979-10-16 18:00:00 TS 11.6000 109.000 1008 tokyo main 0 0 _O____________ -1 11.6000 109.000 2 1008 0 0 0 6 264
1979271N13113 1979 95 WP MM SARAH 1979-10-16 21:00:00 TS 11.3527 108.560 main 0 0 _P____________ -1 11.3527 108.560 2 1008 0 0 12 239
1979271N13113 1979 95 WP MM SARAH 1979-10-17 00:00:00 TS 11.0000 108.000 1008 tokyo main 0 0 _O____________ -1 11.0000 108.000 2 1008 0 0 0 11 241
1979271N13113 1979 95 WP MM SARAH 1979-10-17 03:00:00 TS 10.7949 107.555 main 0 0 _P____________ -1 10.7949 107.555 2 1008 0 0 8 249
1979271N13113 1979 95 WP MM SARAH 1979-10-17 06:00:00 TS 10.7000 107.200 1008 tokyo main 0 _O____________ -1 10.7000 107.200 2 1008 0 0 0 7 255

Digital Typhoon Data and Search

About IBTrACS Database

This database is a web-friendly format of International Best Track Archive for Climate Stewardship (IBTrACS), a global best track data archive curated by NOAA dating back to 1842.

Updated: 2021-10-19